Time;durP1;ratioP1;P1;durP2;ratioP2;P2;SDS_P1;SDS_P2;PMS_P1;PMS_P2;Temp;Humidity;BMP_temperature;BMP_pressure;BME280_temperature;BME280_humidity;BME280_pressure;Samples;Min_cycle;Max_cycle;Signal;HPM_P1;HPM_P2
2022/03/07 00:01:57;;;;;;;4.87;3.60;;;0.00;99.90;;;;;;5042993;28;20029;-69
2022/03/07 00:04:23;;;;;;;8.27;4.57;;;0.00;99.90;;;;;;5032847;28;20041;-68
2022/03/07 00:06:49;;;;;;;9.67;5.40;;;0.00;99.90;;;;;;5032951;28;20152;-68
2022/03/07 00:09:15;;;;;;;6.67;4.90;;;0.00;99.90;;;;;;5033042;28;20091;-68
2022/03/07 00:11:42;;;;;;;4.80;4.27;;;-0.10;99.90;;;;;;5032355;28;20118;-68
2022/03/07 00:14:08;;;;;;;6.73;4.70;;;;;;;;;;5032414;28;20030;-68
2022/03/07 00:16:34;;;;;;;6.07;4.10;;;-0.40;99.90;;;;;;5037714;28;20037;-68
2022/03/07 00:19:00;;;;;;;7.00;5.17;;;;;;;;;;5033584;28;20025;-68
2022/03/07 00:21:26;;;;;;;7.07;5.30;;;-0.40;99.90;;;;;;5032638;28;20046;-68
2022/03/07 00:23:52;;;;;;;9.50;5.67;;;;;;;;;;5032349;28;20478;-68
2022/03/07 00:26:18;;;;;;;6.73;4.50;;;-0.50;99.90;;;;;;5031893;28;20105;-68
2022/03/07 00:28:46;;;;;;;6.23;4.90;;;-0.80;99.90;;;;;;5032594;28;20033;-68
2022/03/07 00:31:12;;;;;;;6.67;4.87;;;-0.70;99.90;;;;;;5037913;28;20485;-66
2022/03/07 00:33:38;;;;;;;7.00;4.80;;;;;;;;;;5052546;28;20036;-66
2022/03/07 00:36:05;;;;;;;9.30;4.93;;;-0.80;99.90;;;;;;5052249;28;20033;-66
2022/03/07 00:38:31;;;;;;;7.70;4.17;;;-0.70;99.90;;;;;;5052240;28;20104;-68
2022/03/07 00:40:57;;;;;;;7.20;4.77;;;;;;;;;;5051254;28;20574;-68
2022/03/07 00:43:22;;;;;;;8.03;4.70;;;-0.60;99.90;;;;;;5052122;28;20075;-68
2022/03/07 00:45:49;;;;;;;9.53;5.17;;;-0.80;99.90;;;;;;5052371;28;20061;-68
2022/03/07 00:48:15;;;;;;;6.33;4.67;;;-0.70;99.90;;;;;;5052212;28;20487;-68
2022/03/07 00:50:44;;;;;;;6.37;5.47;;;-0.60;99.90;;;;;;5052157;28;20025;-67
2022/03/07 00:53:11;;;;;;;6.00;4.83;;;-0.60;99.90;;;;;;5051870;28;20090;-68
2022/03/07 00:55:37;;;;;;;6.07;4.80;;;-0.50;99.90;;;;;;5051740;28;20057;-68
2022/03/07 00:58:03;;;;;;;6.67;4.77;;;;;;;;;;5051644;28;20025;-68
2022/03/07 01:00:29;;;;;;;7.00;4.90;;;-0.60;99.90;;;;;;5050865;28;20032;-68
2022/03/07 01:02:55;;;;;;;7.27;5.40;;;;;;;;;;5051702;28;20073;-68
2022/03/07 01:05:21;;;;;;;6.77;5.00;;;-0.70;99.90;;;;;;5051868;28;20050;-68
2022/03/07 01:07:47;;;;;;;5.93;5.00;;;;;;;;;;5051283;28;20033;-66
2022/03/07 01:10:12;;;;;;;6.47;5.40;;;-0.70;99.90;;;;;;5050971;28;20040;-66
2022/03/07 01:12:38;;;;;;;10.07;6.13;;;;;;;;;;5051871;28;20386;-66
2022/03/07 01:15:05;;;;;;;8.20;5.57;;;-0.60;99.90;;;;;;5051629;28;20051;-67
2022/03/07 01:17:31;;;;;;;7.20;5.00;;;-0.40;99.90;;;;;;5050389;28;20492;-67
2022/03/07 01:19:57;;;;;;;7.70;5.70;;;;;;;;;;5051504;28;20083;-67
2022/03/07 01:22:23;;;;;;;7.63;5.10;;;-0.50;99.90;;;;;;5051370;28;20044;-67
2022/03/07 01:24:48;;;;;;;8.53;5.63;;;;;;;;;;5051045;28;20452;-67
2022/03/07 01:27:14;;;;;;;13.17;6.60;;;-0.40;99.90;;;;;;5051550;28;20025;-67
2022/03/07 01:29:40;;;;;;;8.40;5.93;;;0.10;99.90;;;;;;5051595;28;20474;-67
2022/03/07 01:32:06;;;;;;;5.70;4.30;;;;;;;;;;5050868;28;20045;-67
2022/03/07 01:34:31;;;;;;;8.97;5.40;;;-0.20;99.90;;;;;;5051386;28;20505;-67
2022/03/07 01:36:57;;;;;;;7.60;6.33;;;;;;;;;;5050613;28;20067;-67
2022/03/07 01:39:23;;;;;;;11.43;6.53;;;0.00;99.90;;;;;;5051307;28;20051;-67
2022/03/07 01:41:49;;;;;;;8.47;5.97;;;;;;;;;;5050754;28;20052;-67
2022/03/07 01:44:24;;;;;;;8.93;4.83;;;-0.60;99.90;;;;;;5051288;28;20032;-68
2022/03/07 01:46:49;;;;;;;8.97;4.97;;;-0.90;99.90;;;;;;5050650;28;20036;-68
2022/03/07 01:49:16;;;;;;;10.87;5.40;;;-0.70;99.90;;;;;;5050779;28;20036;-68
2022/03/07 01:51:44;;;;;;;7.83;5.57;;;-0.70;99.90;;;;;;5050399;28;20478;-68
2022/03/07 01:54:11;;;;;;;9.70;6.83;;;-0.90;99.90;;;;;;5050881;28;20024;-68
2022/03/07 01:56:36;;;;;;;9.33;5.87;;;-0.90;99.90;;;;;;5050719;28;20036;-68
2022/03/07 01:59:05;;;;;;;9.33;5.90;;;-1.10;99.90;;;;;;5050861;28;20025;-68
2022/03/07 02:01:31;;;;;;;7.60;5.60;;;;;;;;;;5050647;28;20426;-69
2022/03/07 02:03:57;;;;;;;9.20;6.33;;;;;;;;;;5050603;28;20025;-69
2022/03/07 02:06:24;;;;;;;8.10;5.43;;;-1.10;99.90;;;;;;5050356;28;20035;-69
2022/03/07 02:08:51;;;;;;;8.70;5.93;;;-1.00;99.90;;;;;;5050326;28;20504;-68
2022/03/07 02:11:17;;;;;;;8.33;5.70;;;;;;;;;;5050356;28;20428;-68
2022/03/07 02:13:42;;;;;;;8.17;6.03;;;-1.10;99.90;;;;;;5050235;28;20072;-68
2022/03/07 02:16:09;;;;;;;13.33;5.77;;;;;;;;;;5050350;28;20033;-70
2022/03/07 02:18:35;;;;;;;7.90;5.63;;;-1.20;99.90;;;;;;5049907;28;20052;-68
2022/03/07 02:21:08;;;;;;;13.03;6.57;;;-1.10;99.90;;;;;;5049560;28;20059;-68
2022/03/07 02:23:35;;;;;;;12.90;6.80;;;-1.00;99.90;;;;;;5050517;28;20029;-68
2022/03/07 02:26:07;;;;;;;9.10;6.10;;;-1.10;99.90;;;;;;5050392;28;20021;-68
2022/03/07 02:28:33;;;;;;;9.07;8.13;;;-1.10;99.90;;;;;;5050220;28;20025;-68
2022/03/07 02:30:58;;;;;;;10.27;6.43;;;-1.00;99.90;;;;;;5050156;28;20021;-68
2022/03/07 02:33:24;;;;;;;9.13;6.23;;;;;;;;;;5050286;28;20102;-68
2022/03/07 02:35:50;;;;;;;9.87;7.23;;;-1.10;99.90;;;;;;5049638;28;20025;-68
2022/03/07 02:38:16;;;;;;;10.07;6.87;;;;;;;;;;5049982;28;20377;-68
2022/03/07 02:40:43;;;;;;;6.83;5.93;;;-1.00;99.90;;;;;;5049912;28;20075;-68
2022/03/07 02:43:09;;;;;;;9.30;6.67;;;-1.30;99.90;;;;;;5050105;28;20045;-68
2022/03/07 02:45:35;;;;;;;9.33;6.13;;;-1.10;99.90;;;;;;5050176;28;20059;-68
2022/03/07 02:48:00;;;;;;;8.97;6.63;;;-1.20;99.90;;;;;;5048524;28;20029;-68
2022/03/07 02:50:26;;;;;;;9.23;6.60;;;-1.00;99.90;;;;;;5049649;28;20036;-68
2022/03/07 02:52:51;;;;;;;9.73;7.00;;;;;;;;;;5049474;28;20033;-67
2022/03/07 02:55:18;;;;;;;9.00;6.50;;;;;;;;;;5050026;28;20036;-68
2022/03/07 02:57:43;;;;;;;10.87;7.40;;;-1.30;99.90;;;;;;5048803;28;20060;-68
2022/03/07 03:00:09;;;;;;;10.30;7.27;;;-1.30;99.90;;;;;;5049654;28;20064;-68
2022/03/07 03:02:35;;;;;;;10.23;6.20;;;-1.30;99.90;;;;;;5049795;28;20040;-68
2022/03/07 03:05:00;;;;;;;10.67;6.23;;;-1.40;99.90;;;;;;5049392;28;20036;-69
2022/03/07 03:07:26;;;;;;;10.57;6.60;;;-1.00;99.90;;;;;;5049883;28;20429;-68
2022/03/07 03:09:51;;;;;;;10.80;7.20;;;-1.20;99.90;;;;;;5049531;28;20029;-68
2022/03/07 03:12:19;;;;;;;11.20;8.07;;;-1.40;99.90;;;;;;5049738;28;20048;-68
2022/03/07 03:14:46;;;;;;;14.20;7.70;;;-1.30;99.90;;;;;;5049990;28;20085;-68
2022/03/07 03:17:12;;;;;;;11.70;7.50;;;-1.50;99.90;;;;;;5049412;28;20036;-70
2022/03/07 03:19:38;;;;;;;10.27;7.07;;;;;;;;;;5049456;28;20525;-68
2022/03/07 03:22:03;;;;;;;14.67;7.27;;;-1.50;99.90;;;;;;5049392;28;20164;-68
2022/03/07 03:24:29;;;;;;;10.77;7.73;;;-1.30;99.90;;;;;;5049923;28;20047;-68
2022/03/07 03:26:55;;;;;;;8.73;5.37;;;-1.70;99.90;;;;;;5037702;28;20065;-68
2022/03/07 03:29:21;;;;;;;11.50;7.47;;;-1.50;99.90;;;;;;5037376;28;20525;-67
2022/03/07 03:31:46;;;;;;;11.73;7.33;;;-1.60;99.90;;;;;;5032438;28;20029;-67
2022/03/07 03:34:12;;;;;;;11.77;5.30;;;;;;;;;;5032960;28;20079;-67
2022/03/07 03:36:38;;;;;;;11.70;7.67;;;-1.60;99.90;;;;;;5033503;28;20034;-67
2022/03/07 03:39:03;;;;;;;14.40;8.57;;;-1.60;99.90;;;;;;5049399;28;20033;-67
2022/03/07 03:41:29;;;;;;;11.10;7.70;;;;;;;;;;5052197;28;20060;-67
2022/03/07 03:43:55;;;;;;;12.97;7.90;;;;;;;;;;5053200;28;20045;-67
2022/03/07 03:46:21;;;;;;;13.30;9.37;;;;;;;;;;5052969;28;20047;-67
2022/03/07 03:48:47;;;;;;;14.73;10.50;;;-1.50;99.90;;;;;;5053059;28;20529;-67
2022/03/07 03:51:12;;;;;;;17.03;9.33;;;;;;;;;;5053086;28;20025;-67
2022/03/07 03:53:38;;;;;;;12.37;8.83;;;-1.10;99.90;;;;;;5053406;28;20105;-67
2022/03/07 03:56:04;;;;;;;13.93;9.20;;;-1.30;99.90;;;;;;5052895;28;20051;-67
2022/03/07 03:58:29;;;;;;;11.97;9.23;;;-1.00;99.90;;;;;;5053428;28;20359;-67
2022/03/07 04:00:55;;;;;;;18.87;11.33;;;-1.00;99.90;;;;;;5052894;28;20033;-67
2022/03/07 04:03:21;;;;;;;22.87;11.10;;;;;;;;;;5052667;28;20041;-67
2022/03/07 04:05:46;;;;;;;16.73;11.93;;;-0.90;99.90;;;;;;5052966;28;20496;-67
2022/03/07 04:08:12;;;;;;;18.73;12.27;;;;;;;;;;5052457;28;20029;-67
2022/03/07 04:10:38;;;;;;;15.03;10.77;;;-0.70;99.90;;;;;;5053091;28;20033;-67
2022/03/07 04:13:04;;;;;;;20.13;12.17;;;;;;;;;;5052593;28;20107;-67
2022/03/07 04:15:30;;;;;;;15.37;11.07;;;-0.50;99.90;;;;;;5052868;28;20036;-67
2022/03/07 04:17:55;;;;;;;18.47;12.13;;;-0.50;99.90;;;;;;5051907;28;20025;-67
2022/03/07 04:20:21;;;;;;;13.87;10.37;;;-0.30;99.90;;;;;;5052854;28;20382;-67
2022/03/07 04:22:46;;;;;;;19.80;13.70;;;-0.30;99.90;;;;;;5052781;28;20074;-67
2022/03/07 04:25:12;;;;;;;17.07;11.73;;;;;;;;;;5052358;28;20025;-67
2022/03/07 04:27:38;;;;;;;20.60;12.87;;;-0.40;99.90;;;;;;5051373;28;20083;-67
2022/03/07 04:30:08;;;;;;;19.23;11.50;;;-0.60;99.90;;;;;;5052298;28;20025;-67
2022/03/07 04:32:36;;;;;;;16.47;11.43;;;-0.60;99.90;;;;;;5052230;28;20048;-67
2022/03/07 04:35:04;;;;;;;16.90;11.60;;;-0.60;99.90;;;;;;5052044;28;20052;-67
2022/03/07 04:37:31;;;;;;;19.20;11.37;;;-0.40;99.90;;;;;;5052876;28;20529;-67
2022/03/07 04:39:57;;;;;;;16.27;12.03;;;;;;;;;;5052019;28;20086;-67
2022/03/07 04:42:22;;;;;;;17.50;11.20;;;-0.60;99.90;;;;;;5051065;28;20529;-67
2022/03/07 04:44:48;;;;;;;20.40;11.93;;;;;;;;;;5052505;28;20442;-67
2022/03/07 04:47:14;;;;;;;21.03;12.90;;;-0.40;99.90;;;;;;5051895;28;20029;-67
2022/03/07 04:49:39;;;;;;;16.30;12.27;;;-0.50;99.90;;;;;;5052204;28;20029;-67
2022/03/07 04:52:05;;;;;;;22.00;13.47;;;-0.60;99.90;;;;;;5051651;28;20067;-67
2022/03/07 04:54:30;;;;;;;17.07;12.07;;;-0.60;99.90;;;;;;5052185;28;20037;-67
2022/03/07 04:56:56;;;;;;;16.77;11.60;;;;;;;;;;5051894;28;20032;-67
2022/03/07 04:59:22;;;;;;;21.57;11.83;;;-0.50;99.90;;;;;;5052205;28;20169;-67
2022/03/07 05:01:48;;;;;;;16.40;11.57;;;;;;;;;;5051611;28;20086;-67
2022/03/07 05:04:14;;;;;;;23.37;13.10;;;-0.60;99.90;;;;;;5052059;28;20027;-67
2022/03/07 05:06:39;;;;;;;19.63;11.63;;;-0.70;99.90;;;;;;5051842;28;20482;-67
2022/03/07 05:09:05;;;;;;;20.60;11.13;;;-0.90;99.90;;;;;;5051626;28;20025;-67
2022/03/07 05:11:31;;;;;;;16.63;10.93;;;;;;;;;;5051752;28;20059;-67
2022/03/07 05:13:56;;;;;;;16.23;11.23;;;-1.00;99.90;;;;;;5050419;28;20373;-67
2022/03/07 05:16:22;;;;;;;18.50;12.80;;;-1.10;99.90;;;;;;5051360;28;20091;-67
2022/03/07 05:18:49;;;;;;;20.30;11.90;;;;;;;;;;5051730;28;20020;-67
2022/03/07 05:21:15;;;;;;;17.80;12.60;;;-1.10;99.90;;;;;;5051769;28;20481;-67
2022/03/07 05:23:40;;;;;;;17.60;11.00;;;-1.10;99.90;;;;;;5051510;28;20497;-67
2022/03/07 05:26:08;;;;;;;14.90;11.07;;;;;;;;;;5050508;28;20075;-67
2022/03/07 05:28:34;;;;;;;17.07;11.37;;;;;;;;;;5051562;28;20116;-67
2022/03/07 05:31:02;;;;;;;17.67;11.50;;;;;;;;;;5050622;28;20056;-67
2022/03/07 05:33:28;;;;;;;19.27;12.17;;;-1.20;99.90;;;;;;5051491;28;20052;-67
2022/03/07 05:35:53;;;;;;;17.97;11.43;;;-1.20;99.90;;;;;;5051310;28;20072;-67
2022/03/07 05:38:19;;;;;;;21.60;13.63;;;-0.60;99.90;;;;;;5051341;28;20482;-67
2022/03/07 05:40:44;;;;;;;18.10;12.83;;;-1.30;99.90;;;;;;5050626;28;20081;-67
2022/03/07 05:43:10;;;;;;;16.87;11.97;;;-1.00;99.90;;;;;;5050922;28;20098;-67
2022/03/07 05:45:36;;;;;;;17.90;11.67;;;-0.90;99.90;;;;;;5051009;28;20092;-67
2022/03/07 05:48:02;;;;;;;15.47;11.00;;;;;;;;;;5051075;28;20478;-67
2022/03/07 05:50:28;;;;;;;18.87;13.17;;;;;;;;;;5051096;28;20028;-67
2022/03/07 05:52:53;;;;;;;17.23;13.37;;;-1.10;99.90;;;;;;5050977;28;20489;-68
2022/03/07 05:55:19;;;;;;;18.53;11.23;;;;;;;;;;5050537;28;20064;-67
2022/03/07 05:57:45;;;;;;;18.37;11.73;;;;;;;;;;5049677;28;20402;-67
2022/03/07 06:00:12;;;;;;;19.10;11.10;;;-1.60;99.90;;;;;;5050202;28;20025;-67
2022/03/07 06:02:38;;;;;;;14.60;10.10;;;-1.50;99.90;;;;;;5050867;28;20041;-67
2022/03/07 06:05:04;;;;;;;22.87;12.47;;;-1.40;99.90;;;;;;5050640;28;20017;-67
2022/03/07 06:07:30;;;;;;;21.53;14.70;;;-1.40;99.90;;;;;;5050830;28;20029;-67
2022/03/07 06:09:56;;;;;;;16.53;11.37;;;;;;;;;;5050460;28;20071;-68
2022/03/07 06:12:21;;;;;;;18.50;12.60;;;-1.50;99.90;;;;;;5050465;28;20028;-67
2022/03/07 06:14:47;;;;;;;19.60;12.27;;;;;;;;;;5050247;28;20510;-67
2022/03/07 06:17:13;;;;;;;19.90;13.00;;;-1.60;99.90;;;;;;5049209;28;20033;-68
2022/03/07 06:19:38;;;;;;;16.00;11.33;;;-1.50;99.90;;;;;;5050553;28;20025;-67
2022/03/07 06:22:04;;;;;;;22.00;13.70;;;-1.70;99.90;;;;;;5050109;28;20569;-67
2022/03/07 06:24:29;;;;;;;24.10;12.00;;;-1.60;99.90;;;;;;5050095;28;20025;-67
2022/03/07 06:26:56;;;;;;;14.33;10.57;;;-2.60;99.90;;;;;;5050231;28;20025;-67
2022/03/07 06:29:22;;;;;;;18.53;12.23;;;-1.60;99.90;;;;;;5050598;28;20037;-67
2022/03/07 06:31:48;;;;;;;20.03;12.13;;;-2.00;99.90;;;;;;5050258;28;20040;-67
2022/03/07 06:34:14;;;;;;;13.73;9.80;;;-1.90;99.90;;;;;;5049098;28;20105;-67
2022/03/07 06:36:40;;;;;;;18.83;12.13;;;;;;;;;;5050388;28;20025;-67
2022/03/07 06:39:06;;;;;;;18.73;13.13;;;-1.70;99.90;;;;;;5049918;28;20083;-67
2022/03/07 06:41:32;;;;;;;18.57;11.97;;;-1.50;99.90;;;;;;5049509;28;20049;-67
2022/03/07 06:43:58;;;;;;;15.70;11.57;;;-1.70;99.90;;;;;;5050037;28;20043;-68
2022/03/07 06:46:24;;;;;;;17.60;11.10;;;;;;;;;;5050197;28;20053;-67
2022/03/07 06:48:49;;;;;;;27.50;13.13;;;-1.80;99.90;;;;;;5048474;28;20449;-67
2022/03/07 06:51:17;;;;;;;21.87;11.67;;;-2.00;99.90;;;;;;5049727;28;20025;-67
2022/03/07 06:53:43;;;;;;;20.07;13.27;;;;;;;;;;5050020;28;20029;-67
2022/03/07 06:56:08;;;;;;;18.73;12.50;;;-1.60;99.90;;;;;;5049300;28;20840;-67
2022/03/07 06:58:34;;;;;;;17.87;12.33;;;-1.70;99.90;;;;;;5050181;28;20021;-67
2022/03/07 07:00:59;;;;;;;21.63;12.87;;;-1.50;99.90;;;;;;5049979;28;20380;-67
2022/03/07 07:03:24;;;;;;;23.90;13.83;;;-1.70;99.90;;;;;;5049955;28;20485;-68
2022/03/07 07:05:50;;;;;;;19.50;13.63;;;-1.50;99.90;;;;;;5049131;28;20039;-68
2022/03/07 07:08:15;;;;;;;17.37;10.87;;;-1.60;99.90;;;;;;5049778;28;20029;-68
2022/03/07 07:10:41;;;;;;;16.80;12.00;;;;;;;;;;5049433;28;20444;-68
2022/03/07 07:13:12;;;;;;;18.20;13.27;;;-1.60;99.90;;;;;;5049228;28;20029;-68
2022/03/07 07:15:37;;;;;;;18.67;12.67;;;-1.40;99.90;;;;;;5050025;28;20025;-69
2022/03/07 07:18:03;;;;;;;18.77;12.07;;;-1.50;99.90;;;;;;5049502;28;20099;-68
2022/03/07 07:20:28;;;;;;;18.87;13.13;;;-1.30;99.90;;;;;;5049780;28;20036;-68
2022/03/07 07:22:54;;;;;;;19.07;13.07;;;-1.50;99.90;;;;;;5049387;28;20041;-68
2022/03/07 07:25:20;;;;;;;19.57;12.40;;;;;;;;;;5047975;28;20560;-68
2022/03/07 07:27:45;;;;;;;24.87;13.37;;;-1.20;99.90;;;;;;5049882;28;20107;-69
2022/03/07 07:30:11;;;;;;;19.20;12.93;;;-1.40;99.90;;;;;;5049523;28;20029;-69
2022/03/07 07:32:39;;;;;;;19.77;12.03;;;-1.20;99.90;;;;;;5049843;28;20055;-69
2022/03/07 07:35:05;;;;;;;18.20;12.70;;;-1.40;99.90;;;;;;5049309;28;20024;-68
2022/03/07 07:37:31;;;;;;;17.10;11.33;;;;;;;;;;5049618;28;20025;-69
2022/03/07 07:39:57;;;;;;;20.37;13.60;;;-1.10;99.90;;;;;;5048797;28;20095;-69
2022/03/07 07:42:23;;;;;;;20.67;13.87;;;;;;;;;;5049349;28;20053;-69
2022/03/07 07:44:48;;;;;;;23.47;13.77;;;;;;;;;;5049587;28;20064;-69
2022/03/07 07:47:14;;;;;;;17.17;12.00;;;;;;;;;;5049532;28;20057;-69
2022/03/07 07:49:40;;;;;;;18.63;13.70;;;-0.90;99.90;;;;;;5049606;28;20036;-69
2022/03/07 07:52:06;;;;;;;24.07;14.73;;;-0.50;99.90;;;;;;5049033;28;20033;-69
2022/03/07 07:54:31;;;;;;;22.30;14.50;;;-0.60;99.90;;;;;;5048908;28;21745;-69
2022/03/07 07:56:58;;;;;;;18.03;12.07;;;-0.30;99.90;;;;;;5049359;28;20040;-69
2022/03/07 07:59:23;;;;;;;19.23;12.87;;;-0.10;99.90;;;;;;5035583;28;20036;-69
2022/03/07 08:01:49;;;;;;;19.27;13.33;;;;;;;;;;5028808;28;20026;-69
2022/03/07 08:04:15;;;;;;;20.10;13.97;;;;;;;;;;5035405;28;20489;-68
2022/03/07 08:06:41;;;;;;;19.17;13.30;;;;;;;;;;5038419;28;20037;-68
2022/03/07 08:09:07;;;;;;;19.97;14.07;;;0.40;99.90;;;;;;5027062;28;20454;-68
2022/03/07 08:11:33;;;;;;;21.20;12.33;;;0.30;99.90;;;;;;5035878;28;20064;-69
2022/03/07 08:13:58;;;;;;;23.70;13.27;;;;;;;;;;5034497;28;20068;-68
2022/03/07 08:16:25;;;;;;;17.40;12.93;;;;;;;;;;5027255;28;20057;-69
2022/03/07 08:18:51;;;;;;;17.20;12.53;;;;;;;;;;5030367;28;20124;-69
2022/03/07 08:21:20;;;;;;;19.57;13.60;;;;;;;;;;5042272;28;20112;-69
2022/03/07 08:23:45;;;;;;;18.07;10.97;;;1.10;99.90;;;;;;5052027;28;20150;-69
2022/03/07 08:26:11;;;;;;;19.03;15.40;;;1.10;99.90;;;;;;5050814;28;20417;-68
2022/03/07 08:28:37;;;;;;;19.03;13.33;;;;;;;;;;5061502;28;20090;-68
2022/03/07 08:31:03;;;;;;;16.20;13.70;;;;;;;;;;5071723;28;20028;-68
2022/03/07 08:33:31;;;;;;;17.87;12.33;;;1.50;99.90;;;;;;5072223;28;20397;-68
2022/03/07 08:35:57;;;;;;;20.27;15.37;;;1.60;99.90;;;;;;5071624;28;20844;-69
2022/03/07 08:38:23;;;;;;;23.43;12.60;;;1.80;99.90;;;;;;5070041;28;20035;-69
2022/03/07 08:40:49;;;;;;;16.23;12.90;;;;;;;;;;5066177;28;20037;-70
2022/03/07 08:43:14;;;;;;;17.87;12.80;;;2.30;99.90;;;;;;5050796;28;20087;-69
2022/03/07 08:45:40;;;;;;;18.33;12.27;;;2.60;99.90;;;;;;5052000;28;20163;-69
2022/03/07 08:48:06;;;;;;;17.47;10.03;;;;;;;;;;5052355;28;20103;-68
2022/03/07 08:50:32;;;;;;;12.10;8.73;;;;;;;;;;5068301;28;20029;-68
2022/03/07 08:52:58;;;;;;;13.40;8.57;;;2.70;99.90;;;;;;5048026;28;20086;-69
2022/03/07 08:55:23;;;;;;;14.53;9.07;;;3.10;99.90;;;;;;5051368;28;20029;-69
2022/03/07 08:57:49;;;;;;;11.27;8.53;;;;;;;;;;5051267;28;20029;-67
2022/03/07 09:00:15;;;;;;;10.13;8.53;;;3.20;99.90;;;;;;5051040;28;20032;-68
2022/03/07 09:02:40;;;;;;;12.33;7.83;;;3.00;99.90;;;;;;5064727;28;20082;-67
2022/03/07 09:05:07;;;;;;;11.20;7.63;;;3.10;99.90;;;;;;5052076;28;20048;-67
2022/03/07 09:07:33;;;;;;;12.00;7.83;;;;;;;;;;5051200;28;20029;-67
2022/03/07 09:09:59;;;;;;;9.00;7.70;;;3.40;99.90;;;;;;5054233;28;20096;-67
2022/03/07 09:12:27;;;;;;;10.23;7.53;;;3.30;99.90;;;;;;5063536;28;20043;-67
2022/03/07 09:14:56;;;;;;;10.33;7.90;;;3.60;99.90;;;;;;5071159;28;20059;-67
2022/03/07 09:17:21;;;;;;;8.30;6.70;;;3.40;99.90;;;;;;5071289;28;20108;-68
2022/03/07 09:19:47;;;;;;;10.50;6.77;;;;;;;;;;5071073;28;20123;-68
2022/03/07 09:22:13;;;;;;;11.30;8.87;;;;;;;;;;5067795;28;20045;-68
2022/03/07 09:24:39;;;;;;;7.87;5.87;;;3.60;99.90;;;;;;5069664;28;20456;-69
2022/03/07 09:27:05;;;;;;;8.33;7.40;;;;;;;;;;5059974;28;20108;-68
2022/03/07 09:29:31;;;;;;;7.07;6.00;;;;;;;;;;5050555;28;20029;-68
2022/03/07 09:31:56;;;;;;;8.10;6.67;;;3.80;99.90;;;;;;5050932;28;20517;-68
2022/03/07 09:34:22;;;;;;;8.60;6.80;;;;;;;;;;5063379;28;20029;-68
2022/03/07 09:36:48;;;;;;;10.90;6.60;;;3.90;99.90;;;;;;5042346;28;20029;-69
2022/03/07 09:39:14;;;;;;;7.07;6.27;;;;;;;;;;5060347;28;20021;-68
2022/03/07 09:41:43;;;;;;;7.70;5.90;;;4.00;98.60;;;;;;5036959;28;20044;-68
2022/03/07 09:44:09;;;;;;;8.73;6.10;;;;;;;;;;5043901;28;20179;-69
2022/03/07 09:46:35;;;;;;;7.60;5.80;;;4.30;99.90;;;;;;5048504;28;20025;-69
2022/03/07 09:49:01;;;;;;;7.70;5.80;;;4.10;99.90;;;;;;5050082;28;20041;-68
2022/03/07 09:51:27;;;;;;;7.23;4.83;;;4.10;99.90;;;;;;5050562;28;20035;-68
2022/03/07 09:53:53;;;;;;;5.80;4.80;;;;;;;;;;5050411;28;20110;-68
2022/03/07 09:56:19;;;;;;;6.57;5.93;;;;;;;;;;5052148;28;20033;-68
2022/03/07 09:58:45;;;;;;;6.17;5.20;;;4.30;99.90;;;;;;5069117;28;20028;-69
2022/03/07 10:01:14;;;;;;;10.03;6.17;;;4.50;99.90;;;;;;5069758;28;20033;-68
2022/03/07 10:03:41;;;;;;;9.70;5.47;;;4.40;99.90;;;;;;5070567;28;20036;-68
2022/03/07 10:06:15;;;;;;;6.70;5.20;;;4.40;99.90;;;;;;5067606;28;20028;-66
2022/03/07 10:08:54;;;;;;;7.47;5.80;;;4.40;99.90;;;;;;5055883;28;20501;-67
2022/03/07 10:11:20;;;;;;;7.90;5.00;;;4.50;99.90;;;;;;5049777;28;20486;-67
2022/03/07 10:14:03;;;;;;;6.40;5.40;;;4.40;99.70;;;;;;5050657;28;20390;-67
2022/03/07 10:16:37;;;;;;;6.23;5.20;;;4.50;96.20;;;;;;5049285;28;20092;-68
2022/03/07 10:19:07;;;;;;;7.85;5.90;;;4.60;97.20;;;;;;5049223;28;20106;-68
2022/03/07 10:21:33;;;;;;;9.40;5.83;;;;;;;;;;5050020;28;20032;-68
2022/03/07 10:23:59;;;;;;;7.10;4.97;;;4.70;99.90;;;;;;5062751;28;20040;-68
2022/03/07 10:26:25;;;;;;;6.17;5.17;;;;;;;;;;5054281;28;20029;-68
2022/03/07 10:28:56;;;;;;;7.37;6.50;;;4.70;94.90;;;;;;5049750;28;20048;-68
2022/03/07 10:31:23;;;;;;;7.60;5.90;;;;;;;;;;5064743;28;21006;-68
2022/03/07 10:34:07;;;;;;;9.23;5.33;;;4.80;95.80;;;;;;5057680;28;20482;-69
2022/03/07 10:36:35;;;;;;;8.52;5.13;;;5.00;99.90;;;;;;5040769;28;20473;-68
2022/03/07 10:39:04;;;;;;;6.30;4.67;;;4.90;97.30;;;;;;5069828;28;20116;-70
2022/03/07 10:41:38;;;;;;;7.87;6.10;;;4.80;99.90;;;;;;5069291;28;20455;-68
2022/03/07 10:44:05;;;;;;;8.70;5.90;;;4.80;99.90;;;;;;5069568;28;20071;-68
2022/03/07 10:46:31;;;;;;;7.20;5.47;;;4.80;99.10;;;;;;5069980;28;20024;-68
2022/03/07 10:48:57;;;;;;;6.27;4.93;;;;;;;;;;5068056;28;20423;-69
2022/03/07 10:51:25;;;;;;;7.83;6.70;;;5.00;99.90;;;;;;5050049;28;20025;-69
2022/03/07 10:53:51;;;;;;;8.43;5.63;;;4.90;99.90;;;;;;5055382;28;20024;-69
2022/03/07 10:56:18;;;;;;;8.93;6.10;;;4.90;94.90;;;;;;5070015;28;20044;-68
2022/03/07 10:58:49;;;;;;;10.20;6.53;;;4.80;99.90;;;;;;5055791;28;20033;-68
2022/03/07 11:01:15;;;;;;;7.60;5.77;;;;;;;;;;5066341;28;20074;-68
2022/03/07 11:03:40;;;;;;;7.30;6.00;;;4.70;99.90;;;;;;5062485;28;20419;-68
2022/03/07 11:06:06;;;;;;;9.10;5.60;;;5.00;99.90;;;;;;5068045;28;20022;-69
2022/03/07 11:08:32;;;;;;;7.17;5.53;;;5.30;98.00;;;;;;5068587;28;20116;-69
2022/03/07 11:11:00;;;;;;;8.30;6.73;;;4.90;99.90;;;;;;5048762;28;20037;-69
2022/03/07 11:13:29;;;;;;;7.43;5.83;;;5.00;99.90;;;;;;5043346;28;20441;-69
2022/03/07 11:16:00;;;;;;;6.37;5.47;;;5.00;99.90;;;;;;5042529;28;20025;-69
2022/03/07 11:18:27;;;;;;;7.63;6.00;;;4.90;99.90;;;;;;5045736;28;20033;-69
2022/03/07 11:20:54;;;;;;;6.40;5.67;;;4.90;99.90;;;;;;5047367;28;20017;-69
2022/03/07 11:23:21;;;;;;;8.67;6.53;;;5.00;99.90;;;;;;5050242;28;20159;-69
2022/03/07 11:25:50;;;;;;;5.87;5.17;;;5.00;99.90;;;;;;5051454;28;20023;-69
2022/03/07 11:28:15;;;;;;;11.63;6.60;;;5.00;99.90;;;;;;5047098;28;20024;-69
2022/03/07 11:30:43;;;;;;;6.50;5.40;;;5.20;98.40;;;;;;5048806;28;20033;-69
2022/03/07 11:33:13;;;;;;;9.97;6.57;;;5.20;98.40;;;;;;5048384;28;20186;-69
2022/03/07 11:35:43;;;;;;;6.30;5.63;;;5.20;99.90;;;;;;5049536;28;20028;-68
2022/03/07 11:38:12;;;;;;;10.70;6.23;;;5.00;99.90;;;;;;5049285;28;20060;-67
2022/03/07 11:41:01;;;;;;;7.00;5.90;;;5.20;99.90;;;;;;5048030;28;20494;-67
2022/03/07 11:43:29;;;;;;;7.07;5.37;;;5.20;99.90;;;;;;5048948;28;20405;-67
2022/03/07 11:45:56;;;;;;;9.47;6.67;;;5.40;99.90;;;;;;5059867;28;20482;-68
2022/03/07 11:48:22;;;;;;;9.40;5.77;;;;;;;;;;5079960;22;20113;-68
2022/03/07 11:50:48;;;;;;;7.83;5.47;;;;;;;;;;5008903;28;20038;-68
2022/03/07 11:53:15;;;;;;;10.63;6.33;;;;;;;;;;5012530;28;20026;-67
2022/03/07 11:55:46;;;;;;;8.70;5.70;;;5.30;99.90;;;;;;5013511;28;20026;-67
2022/03/07 11:58:12;;;;;;;9.07;5.97;;;5.30;99.90;;;;;;5012676;28;20022;-68
2022/03/07 12:00:38;;;;;;;7.73;5.50;;;5.50;99.90;;;;;;5012351;28;20041;-68
2022/03/07 12:03:13;;;;;;;7.47;5.90;;;5.70;96.40;;;;;;5012108;28;20032;-68
2022/03/07 12:05:39;;;;;;;8.73;6.57;;;;;;;;;;5012253;28;20022;-68
2022/03/07 12:08:13;;;;;;;9.53;7.57;;;5.50;97.60;;;;;;5012481;28;20108;-69
2022/03/07 12:10:53;;;;;;;10.82;7.50;;;5.50;95.00;;;;;;5013066;28;20160;-69
2022/03/07 12:13:19;;;;;;;10.23;6.37;;;5.50;99.90;;;;;;5012498;28;20034;-69
2022/03/07 12:15:57;;;;;;;7.40;6.70;;;5.70;95.10;;;;;;5012613;28;20096;-69
2022/03/07 12:18:23;;;;;;;9.80;7.17;;;5.70;99.90;;;;;;5012748;28;20081;-69
2022/03/07 12:20:54;;;;;;;9.73;7.67;;;5.90;94.90;;;;;;5012019;28;20525;-69
2022/03/07 12:23:23;;;;;;;8.47;7.40;;;6.00;99.90;;;;;;5012349;28;20045;-69
2022/03/07 12:25:57;;;;;;;12.77;6.90;;;6.00;95.00;;;;;;5012666;28;20053;-69
2022/03/07 12:28:26;;;;;;;10.95;8.07;;;5.90;99.90;;;;;;5011083;28;20029;-69
2022/03/07 12:30:54;;;;;;;9.47;7.63;;;6.30;99.90;;;;;;5011994;28;20037;-69
2022/03/07 12:33:20;;;;;;;12.23;8.50;;;6.10;99.90;;;;;;5012139;28;20026;-69
2022/03/07 12:35:45;;;;;;;13.37;8.43;;;6.10;97.20;;;;;;5012416;28;20044;-69
2022/03/07 12:38:11;;;;;;;14.10;9.60;;;6.10;99.90;;;;;;5009366;28;20474;-69
2022/03/07 12:40:38;;;;;;;11.10;8.67;;;6.00;95.20;;;;;;5012159;28;20026;-70
2022/03/07 12:43:05;;;;;;;11.30;8.57;;;6.10;99.90;;;;;;5011675;28;20044;-69
2022/03/07 12:45:31;;;;;;;11.43;9.63;;;6.10;99.90;;;;;;5009127;28;20032;-69
2022/03/07 12:47:56;;;;;;;10.03;8.93;;;6.00;99.50;;;;;;5011193;28;20034;-71
2022/03/07 12:50:26;;;;;;;16.97;9.97;;;6.20;94.70;;;;;;5011675;28;20057;-69
2022/03/07 12:52:52;;;;;;;12.33;9.53;;;6.20;99.90;;;;;;5012014;28;20030;-69
2022/03/07 12:55:18;;;;;;;12.00;7.57;;;6.20;99.90;;;;;;5012008;28;20028;-69
2022/03/07 12:57:44;;;;;;;11.23;8.57;;;6.20;94.70;;;;;;5012122;28;20044;-69
2022/03/07 13:00:10;;;;;;;9.40;8.03;;;;;;;;;;5010786;28;20475;-69
2022/03/07 13:02:39;;;;;;;10.30;7.37;;;6.30;99.90;;;;;;5009996;28;20784;-69
2022/03/07 13:05:08;;;;;;;10.17;7.37;;;6.40;99.90;;;;;;5010973;28;20030;-69